Time;durP1;ratioP1;P1;durP2;ratioP2;P2;SDS_P1;SDS_P2;PMS_P1;PMS_P2;Temp;Humidity;BMP_temperature;BMP_pressure;BME280_temperature;BME280_humidity;BME280_pressure;Samples;Min_cycle;Max_cycle;Signal;HPM_P1;HPM_P2
2022/11/11 00:00:48;;;;;;;31.88;16.83;;;;;;;10.96;57.55;94976.91;5103368;27;20047;-76
2022/11/11 00:03:14;;;;;;;31.92;15.80;;;;;;;10.93;57.38;94944.75;5106120;27;20027;-78
2022/11/11 00:05:40;;;;;;;27.42;16.38;;;;;;;11.21;56.90;94972.31;5103358;27;20020;-76
2022/11/11 00:08:05;;;;;;;28.38;15.60;;;;;;;11.23;56.64;94960.31;5105108;27;20028;-76
2022/11/11 00:10:31;;;;;;;27.17;16.25;;;;;;;10.84;57.10;94928.66;5086124;27;20066;-77
2022/11/11 00:13:00;;;;;;;30.30;16.52;;;;;;;11.07;57.29;94965.06;5085822;27;20065;-77
2022/11/11 00:15:27;;;;;;;27.83;16.92;;;;;;;11.08;57.49;94963.19;5105757;27;20031;-76
2022/11/11 00:26:06;;;;;;;;;;;;;;;11.34;56.61;94990.25;5101786;28;20031;-76
2022/11/11 00:28:32;;;;;;;25.17;15.07;;;;;;;11.01;56.95;94952.88;5086584;28;19915;-77
2022/11/11 00:31:05;;;;;;;30.60;17.48;;;;;;;11.25;56.80;94978.69;5105547;27;20016;-76
2022/11/11 00:33:32;;;;;;;30.23;16.58;;;;;;;11.25;56.46;94986.66;5098645;27;20023;-77
2022/11/11 00:35:59;;;;;;;26.92;15.82;;;;;;;11.18;56.69;94985.16;5104844;27;20181;-77
2022/11/11 00:41:10;;;;;;;30.55;16.48;;;;;;;11.06;57.28;94987.44;5102925;27;20035;-76
2022/11/11 00:43:36;;;;;;;27.08;16.42;;;;;;;10.98;57.82;94979.31;5098271;28;20020;-77
2022/11/11 00:51:29;;;;;;;27.88;15.70;;;;;;;11.14;57.11;94978.81;5103986;27;20475;-76
2022/11/11 00:53:54;;;;;;;27.30;15.50;;;;;;;10.95;57.28;94967.38;5098739;27;20032;-75
2022/11/11 00:56:22;;;;;;;27.60;15.82;;;;;;;11.20;56.96;94978.75;5105027;27;20036;-78
2022/11/11 00:58:47;;;;;;;28.40;15.50;;;;;;;11.21;56.67;94953.69;5102853;27;21225;-76
2022/11/11 01:01:12;;;;;;;28.25;15.93;;;;;;;11.25;56.42;94976.78;5105291;27;20015;-77
2022/11/11 01:03:38;;;;;;;27.42;15.65;;;;;;;10.93;57.07;94950.88;5105025;27;20077;-77
2022/11/11 01:06:04;;;;;;;29.77;17.38;;;;;;;11.18;57.27;94974.50;5104546;27;20039;-77
2022/11/11 01:08:31;;;;;;;32.15;16.98;;;;;;;11.23;56.69;94947.00;5104841;27;20016;-77
2022/11/11 01:10:56;;;;;;;29.92;16.77;;;;;;;11.40;55.83;94949.91;5097397;28;20059;-77
2022/11/11 01:13:27;;;;;;;29.88;17.65;;;;;;;11.43;55.08;94948.56;5102621;27;20032;-77
2022/11/11 01:15:59;;;;;;;30.48;17.25;;;;;;;11.51;54.43;94951.38;5094906;27;20031;-77
2022/11/11 01:18:26;;;;;;;31.02;16.10;;;;;;;11.23;54.11;94904.38;5092198;27;20054;-77
2022/11/11 01:20:59;;;;;;;30.00;16.60;;;;;;;11.43;54.10;94949.34;5079865;28;20187;-76
2022/11/11 01:23:25;;;;;;;27.40;16.27;;;;;;;11.54;54.41;94964.09;5092820;27;20539;-77
2022/11/11 01:25:51;;;;;;;27.17;14.73;;;;;;;11.52;54.15;94970.81;5102867;27;20055;-77
2022/11/11 01:28:17;;;;;;;25.90;14.65;;;;;;;11.36;54.94;94964.09;5101816;27;20020;-78
2022/11/11 01:30:43;;;;;;;31.73;15.95;;;;;;;11.40;54.94;94965.91;5082006;28;20028;-77
2022/11/11 01:33:09;;;;;;;25.88;15.05;;;;;;;11.45;54.93;94968.47;5096657;27;20027;-76
2022/11/11 01:35:39;;;;;;;28.25;14.80;;;;;;;11.50;54.38;94965.75;5102404;27;20016;-76
2022/11/11 01:38:06;;;;;;;26.05;15.57;;;;;;;11.19;55.03;94948.66;5101454;27;20084;-76
2022/11/11 01:40:42;;;;;;;25.73;15.02;;;;;;;11.40;55.05;94957.13;5100036;27;20059;-77
2022/11/11 01:43:11;;;;;;;28.67;16.20;;;;;;;11.34;55.27;94960.97;5102724;27;20031;-78
2022/11/11 01:45:46;;;;;;;27.10;15.77;;;;;;;11.39;55.31;94963.53;5099485;27;20068;-77
2022/11/11 01:51:25;;;;;;;30.25;17.23;;;;;;;11.21;56.28;94967.00;5106211;27;19964;-77
2022/11/11 01:53:58;;;;;;;27.35;16.45;;;;;;;10.94;56.11;94925.06;5080434;28;20440;-77
2022/11/11 01:56:24;;;;;;;32.22;18.05;;;;;;;10.56;57.45;94924.25;5103927;27;20298;-78
2022/11/11 01:58:53;;;;;;;36.50;18.90;;;;;;;10.63;57.96;94941.44;5091291;28;20028;-77
2022/11/11 02:01:18;;;;;;;32.35;19.58;;;;;;;10.95;57.86;94970.03;5105088;27;20031;-77
2022/11/11 02:06:32;;;;;;;29.75;18.08;;;;;;;10.99;57.53;94975.56;5105060;27;20042;-77
2022/11/11 02:08:58;;;;;;;27.65;16.55;;;;;;;11.13;56.96;94979.09;5100464;27;20027;-77
2022/11/11 02:16:54;;;;;;;29.55;16.38;;;;;;;11.27;56.72;94987.94;5101232;27;20030;-77
2022/11/11 02:19:30;;;;;;;31.95;18.65;;;;;;;11.15;56.26;94953.75;5081816;28;20044;-78
2022/11/11 02:22:01;;;;;;;32.17;17.55;;;;;;;11.17;56.18;94967.59;5081383;28;20042;-77
2022/11/11 02:24:28;;;;;;;30.50;18.00;;;;;;;10.63;58.26;94968.03;5098483;28;20043;-77
2022/11/11 02:26:55;;;;;;;34.17;18.92;;;;;;;10.95;57.99;94979.88;5099883;28;20023;-77
2022/11/11 02:29:22;;;;;;;30.55;18.00;;;;;;;11.06;57.50;94978.66;5098896;27;20046;-78
2022/11/11 02:31:47;;;;;;;39.88;21.33;;;;;;;10.70;57.50;94925.91;5099608;27;20672;-78
2022/11/11 02:34:13;;;;;;;66.28;42.38;;;;;;;11.03;56.98;94966.72;5101727;28;20114;-77
2022/11/11 02:36:40;;;;;;;45.03;26.80;;;;;;;11.15;56.83;94977.72;5097532;28;20039;-76
2022/11/11 02:39:06;;;;;;;72.13;40.90;;;;;;;10.83;57.43;94943.03;5101390;28;20023;-77
2022/11/11 02:44:15;;;;;;;48.88;29.80;;;;;;;10.52;58.71;94944.50;5101182;28;20031;-77
2022/11/11 02:46:41;;;;;;;42.58;24.90;;;;;;;10.58;59.55;94972.63;5101232;28;20020;-76
2022/11/11 02:49:06;;;;;;;29.40;17.60;;;;;;;10.26;60.23;94958.06;5097587;28;20016;-76
2022/11/11 02:51:31;;;;;;;30.33;18.17;;;;;;;10.23;60.54;94949.84;5101388;28;20532;-77
2022/11/11 02:54:00;;;;;;;25.88;16.20;;;;;;;10.38;60.58;94970.19;5097682;28;20023;-76
2022/11/11 02:59:09;;;;;;;28.40;16.85;;;;;;;10.38;61.67;94965.66;5101860;28;20028;-76
2022/11/11 03:01:34;;;;;;;23.45;15.30;;;;;;;10.31;61.86;94971.31;5105732;28;20016;-76
2022/11/11 03:03:59;;;;;;;24.60;14.18;;;;;;;10.38;62.42;94988.81;5099895;28;20035;-77
2022/11/11 03:06:25;;;;;;;27.15;15.55;;;;;;;10.21;63.45;94987.38;5101327;28;20261;-77
2022/11/11 03:08:50;;;;;;;33.00;17.98;;;;;;;10.19;63.54;94970.09;5081490;28;20410;-78
2022/11/11 03:11:26;;;;;;;26.33;15.25;;;;;;;10.33;63.20;94974.47;5102174;28;20020;-77
2022/11/11 03:13:55;;;;;;;23.73;15.63;;;;;;;10.41;63.31;94986.41;5097711;28;20090;-77
2022/11/11 03:19:04;;;;;;;22.58;13.68;;;;;;;10.27;63.64;94948.22;5098308;28;20078;-77
2022/11/11 03:21:30;;;;;;;27.13;16.02;;;;;;;10.53;63.36;94970.03;5087350;28;20028;-76
2022/11/11 03:23:55;;;;;;;24.42;14.32;;;;;;;10.49;63.32;94967.16;5098341;28;20016;-77
2022/11/11 03:26:21;;;;;;;24.45;14.25;;;;;;;10.77;62.86;94985.97;5101531;28;20057;-77
2022/11/11 03:28:46;;;;;;;24.50;14.45;;;;;;;10.52;63.32;94973.75;5104310;28;20020;-76
2022/11/11 03:31:12;;;;;;;23.23;14.18;;;;;;;10.42;64.41;94987.16;5107890;27;20309;-77
2022/11/11 03:33:37;;;;;;;24.95;14.75;;;;;;;10.41;64.25;94961.66;5103244;27;20027;-77
2022/11/11 03:36:02;;;;;;;29.20;13.50;;;;;;;10.43;63.74;94962.94;5105673;27;20097;-77
2022/11/11 03:38:28;;;;;;;27.17;15.60;;;;;;;10.53;64.53;94978.00;5102365;27;20011;-77
2022/11/11 03:40:55;;;;;;;27.00;14.75;;;;;;;10.39;64.82;94961.16;5105507;27;20032;-78
2022/11/11 03:43:27;;;;;;;22.60;13.30;;;;;;;10.64;64.10;94982.13;5105386;27;20027;-76
2022/11/11 03:45:54;;;;;;;24.88;14.27;;;;;;;10.59;63.57;94955.59;5091891;28;20016;-76
2022/11/11 03:48:20;;;;;;;24.50;14.40;;;;;;;10.63;63.52;94953.94;5094097;27;20506;-77
2022/11/11 03:50:46;;;;;;;21.75;14.02;;;;;;;10.74;63.54;94963.38;5103059;27;20042;-77
2022/11/11 03:53:13;;;;;;;25.95;14.18;;;;;;;10.84;63.15;94959.81;5105322;27;20073;-77
2022/11/11 03:55:39;;;;;;;23.60;14.02;;;;;;;10.98;63.20;94985.41;5101815;27;20024;-77
2022/11/11 03:58:05;;;;;;;26.52;15.73;;;;;;;10.70;63.69;94954.41;5099087;27;20035;-77
2022/11/11 04:00:30;;;;;;;23.88;15.10;;;;;;;11.01;63.77;94992.03;5104971;27;20023;-77
2022/11/11 04:11:30;;;;;;;28.07;15.73;;;;;;;11.03;63.89;94990.69;5104547;27;20132;-77
2022/11/11 04:16:44;;;;;;;26.63;15.05;;;;;;;11.00;62.74;94953.97;5105587;27;20555;-77
2022/11/11 04:21:53;;;;;;;29.63;16.02;;;;;;;11.09;62.64;94954.94;5103678;27;20093;-77
2022/11/11 04:27:08;;;;;;;22.60;13.98;;;;;;;11.37;61.21;94960.38;5102552;27;20038;-77
2022/11/11 04:29:34;;;;;;;21.75;12.77;;;;;;;11.37;60.79;94982.47;5102692;28;20051;-77
2022/11/11 04:34:52;;;;;;;21.00;12.80;;;;;;;11.42;60.71;94993.06;5098105;27;20035;-77
2022/11/11 04:37:19;;;;;;;24.83;13.55;;;;;;;11.14;60.86;94954.06;5105560;27;20018;-77
2022/11/11 04:42:30;;;;;;;22.77;13.05;;;;;;;11.25;60.97;94997.31;5105384;27;20117;-77
2022/11/11 04:48:02;;;;;;;23.90;12.60;;;;;;;11.06;61.88;94997.28;5103597;27;20582;-78
2022/11/11 04:50:30;;;;;;;20.25;12.68;;;;;;;10.80;62.54;94988.84;5090125;28;20551;-78
2022/11/11 04:52:56;;;;;;;22.00;12.77;;;;;;;10.87;62.47;95007.13;5104060;27;20024;-79
2022/11/11 04:58:05;;;;;;;19.83;11.43;;;;;;;10.94;62.02;94995.06;5106647;27;20592;-77
2022/11/11 05:00:31;;;;;;;18.77;12.45;;;;;;;10.98;62.00;94996.06;5104288;27;20031;-76
2022/11/11 05:03:15;;;;;;;21.67;13.32;;;;;;;10.79;62.31;94986.47;5105758;28;20027;-77
2022/11/11 05:08:55;;;;;;;19.60;12.40;;;;;;;11.03;61.93;95001.31;5102947;27;20618;-77
2022/11/11 05:11:23;;;;;;;21.60;13.13;;;;;;;11.05;61.42;94990.41;5103534;27;20030;-77
2022/11/11 05:22:24;;;;;;;19.15;11.65;;;;;;;10.95;60.18;94948.75;5102422;27;20583;-78
2022/11/11 05:27:34;;;;;;;21.02;11.98;;;;;;;11.01;59.94;94971.53;5099578;27;20722;-78
2022/11/11 05:30:00;;;;;;;19.45;11.23;;;;;;;10.97;59.87;94972.38;5089603;27;20122;-76
2022/11/11 05:32:25;;;;;;;18.58;10.73;;;;;;;11.13;60.06;94990.53;5102137;27;20045;-76
2022/11/11 05:34:51;;;;;;;19.25;10.77;;;;;;;11.04;59.45;94978.16;5089846;28;20021;-77
2022/11/11 05:37:17;;;;;;;18.30;11.43;;;;;;;11.24;59.34;94987.75;5100377;27;20085;-76
2022/11/11 05:39:42;;;;;;;17.73;10.30;;;;;;;11.20;59.08;94982.19;5100343;27;20092;-77
2022/11/11 05:42:09;;;;;;;18.33;10.63;;;;;;;11.41;58.89;95014.63;5097726;27;20534;-77
2022/11/11 05:44:34;;;;;;;18.40;11.88;;;;;;;11.18;59.03;94995.78;5102193;27;20050;-77
2022/11/11 05:47:00;;;;;;;16.38;10.23;;;;;;;11.25;59.14;95034.59;5099231;27;20462;-77
2022/11/11 05:49:26;;;;;;;20.75;11.63;;;;;;;11.01;59.32;95014.13;5080717;28;20511;-78
2022/11/11 05:51:52;;;;;;;20.02;11.43;;;;;;;11.10;59.78;95009.72;5100372;27;20546;-76
2022/11/11 05:54:17;;;;;;;19.90;11.20;;;;;;;11.21;59.18;95012.25;5095817;27;20034;-76
2022/11/11 05:56:43;;;;;;;20.70;11.77;;;;;;;11.05;59.16;94974.44;5100734;27;20126;-76
2022/11/11 05:59:09;;;;;;;18.70;10.30;;;;;;;11.25;59.07;95016.72;5102052;27;20019;-77
2022/11/11 06:01:36;;;;;;;17.00;9.70;;;;;;;11.33;59.24;95044.59;5101606;27;20035;-77
2022/11/11 06:04:02;;;;;;;18.83;10.65;;;;;;;11.36;59.02;95054.66;5088416;28;20032;-76
2022/11/11 06:06:27;;;;;;;19.23;10.43;;;;;;;11.39;58.99;95043.47;5078658;27;20034;-76
2022/11/11 06:08:53;;;;;;;21.15;12.88;;;;;;;11.41;59.00;95046.59;5099688;27;20032;-77
2022/11/11 06:11:18;;;;;;;21.30;13.02;;;;;;;11.55;58.65;95050.16;5097299;27;20036;-78
2022/11/11 06:13:44;;;;;;;23.67;12.88;;;;;;;11.70;58.26;95060.59;5096827;27;20062;-78
2022/11/11 06:16:09;;;;;;;24.00;13.48;;;;;;;11.55;58.38;95052.81;5094639;27;20031;-77
2022/11/11 06:18:35;;;;;;;28.13;14.38;;;;;;;11.62;58.41;95069.25;5096932;27;20058;-77
2022/11/11 06:21:00;;;;;;;18.80;11.98;;;;;;;11.58;58.50;95079.72;5082831;28;20490;-77
2022/11/11 06:23:27;;;;;;;21.75;12.18;;;;;;;11.72;58.51;95084.31;5100054;27;20027;-77
2022/11/11 06:26:11;;;;;;;21.52;12.70;;;;;;;11.51;58.63;95057.16;5101401;27;20088;-77
2022/11/11 06:28:38;;;;;;;47.78;19.70;;;;;;;11.61;58.11;95065.00;5095742;27;20043;-77
2022/11/11 06:31:03;;;;;;;53.65;22.08;;;;;;;11.75;58.05;95095.16;5096643;27;20266;-77
2022/11/11 06:33:29;;;;;;;32.75;19.30;;;;;;;11.74;58.12;95088.25;5096106;27;20531;-78
2022/11/11 06:35:55;;;;;;;21.55;13.20;;;;;;;11.70;57.82;95091.78;5100956;27;20027;-77
2022/11/11 06:38:21;;;;;;;19.77;12.88;;;;;;;11.62;57.86;95079.91;5098555;27;20548;-78
2022/11/11 06:40:46;;;;;;;17.20;10.85;;;;;;;11.62;57.64;95071.91;5098180;27;20031;-77
2022/11/11 06:43:12;;;;;;;17.20;10.63;;;;;;;11.72;57.45;95089.63;5097313;27;20020;-77
2022/11/11 06:45:37;;;;;;;20.35;11.95;;;;;;;11.90;57.56;95116.28;5101140;27;20073;-77
2022/11/11 06:48:04;;;;;;;19.25;12.05;;;;;;;11.84;57.60;95101.44;5101466;28;20081;-78
2022/11/11 06:50:33;;;;;;;17.63;11.45;;;;;;;11.79;57.54;95095.38;5099892;28;20031;-77
2022/11/11 06:53:12;;;;;;;20.55;11.25;;;;;;;11.89;57.29;95106.69;5100386;27;20028;-77
2022/11/11 06:55:38;;;;;;;21.45;11.10;;;;;;;11.75;57.79;95084.50;5099702;27;20027;-76
2022/11/11 06:58:09;;;;;;;27.95;15.70;;;;;;;11.69;58.36;95090.19;5103074;28;20422;-77
2022/11/11 07:00:35;;;;;;;30.35;17.63;;;;;;;11.74;58.66;95088.25;5082547;28;20027;-76
2022/11/11 07:03:05;;;;;;;34.78;16.80;;;;;;;11.72;58.77;95085.09;5100509;28;20123;-78
2022/11/11 07:05:32;;;;;;;27.38;16.25;;;;;;;11.57;59.14;95062.13;5099273;28;20024;-78
2022/11/11 07:08:04;;;;;;;25.83;15.52;;;;;;;11.84;59.49;95101.44;5101768;28;20093;-77
2022/11/11 07:10:30;;;;;;;30.23;15.32;;;;;;;11.97;59.38;95114.06;5094063;28;20042;-77
2022/11/11 07:12:56;;;;;;;30.15;15.82;;;;;;;11.80;59.71;95095.09;5084513;28;20039;-77
2022/11/11 07:15:21;;;;;;;28.73;16.55;;;;;;;11.52;60.07;95085.38;5101545;28;20023;-76
2022/11/11 07:17:46;;;;;;;22.08;13.50;;;;;;;11.35;59.89;95107.16;5100816;28;20020;-78
2022/11/11 07:20:12;;;;;;;20.88;13.63;;;;;;;10.84;61.38;95093.66;5085542;28;20044;-77
2022/11/11 07:22:37;;;;;;;23.33;12.52;;;;;;;10.61;62.38;95124.47;5101667;28;20078;-77
2022/11/11 07:25:03;;;;;;;18.50;10.70;;;;;;;10.61;62.74;95119.16;5102556;28;20040;-76
2022/11/11 07:27:29;;;;;;;22.63;13.50;;;;;;;10.64;62.99;95139.91;5101614;28;20138;-78
2022/11/11 07:29:54;;;;;;;23.15;10.82;;;;;;;10.46;63.82;95148.59;5102243;28;20071;-77
2022/11/11 07:32:19;;;;;;;20.85;12.30;;;;;;;10.24;63.91;95113.63;5105350;28;20024;-77
2022/11/11 07:34:45;;;;;;;25.13;12.98;;;;;;;10.35;63.46;95124.97;5084759;28;20024;-78
2022/11/11 07:37:10;;;;;;;22.48;12.00;;;;;;;10.25;63.98;95126.66;5100031;28;20586;-77
2022/11/11 07:39:36;;;;;;;23.08;11.27;;;;;;;10.40;63.62;95157.69;5101379;28;20558;-76
2022/11/11 07:42:01;;;;;;;23.35;11.80;;;;;;;10.28;64.03;95147.38;5099864;28;20040;-77
2022/11/11 07:44:26;;;;;;;22.63;12.40;;;;;;;10.41;63.88;95163.81;5086569;28;20036;-78
2022/11/11 07:46:52;;;;;;;21.25;11.20;;;;;;;10.24;63.72;95135.69;5099394;28;20031;-77
2022/11/11 07:49:17;;;;;;;17.20;10.45;;;;;;;10.30;63.81;95144.44;5102191;28;20027;-77
2022/11/11 07:51:43;;;;;;;18.35;10.48;;;;;;;10.33;63.84;95149.97;5104090;28;20054;-76
2022/11/11 07:54:08;;;;;;;20.55;11.00;;;;;;;10.55;63.37;95170.06;5101036;28;20384;-77
2022/11/11 07:56:34;;;;;;;20.00;10.70;;;;;;;10.48;63.44;95156.28;5105841;28;20026;-77
2022/11/11 07:58:59;;;;;;;19.73;10.98;;;;;;;10.63;63.10;95172.09;5104053;28;20024;-77
2022/11/11 08:01:25;;;;;;;17.38;10.27;;;;;;;10.43;62.57;95143.00;5105404;28;20101;-77
2022/11/11 08:03:50;;;;;;;16.75;9.30;;;;;;;10.38;63.21;95159.81;5093248;28;20028;-77
2022/11/11 08:06:17;;;;;;;20.38;11.60;;;;;;;10.48;63.12;95156.28;5089027;28;20030;-76
2022/11/11 08:08:42;;;;;;;18.75;11.38;;;;;;;10.27;63.33;95164.38;5105699;28;20141;-77
2022/11/11 08:11:08;;;;;;;20.52;10.70;;;;;;;10.39;63.81;95176.56;5101796;28;20039;-76
2022/11/11 08:13:39;;;;;;;17.33;10.60;;;;;;;10.62;63.07;95181.94;5098143;28;20028;-78
2022/11/11 08:16:12;;;;;;;21.98;10.55;;;;;;;10.53;62.73;95182.84;5079706;28;20399;-77
2022/11/11 08:18:37;;;;;;;19.23;10.93;;;;;;;10.17;63.30;95153.81;5108068;27;20084;-76
2022/11/11 08:21:04;;;;;;;24.30;11.82;;;;;;;10.43;63.71;95191.69;5105539;27;20095;-77
2022/11/11 08:23:32;;;;;;;20.92;10.65;;;;;;;10.50;63.00;95194.03;5102454;27;20038;-76
2022/11/11 08:26:02;;;;;;;17.60;11.50;;;;;;;10.44;63.47;95195.16;5099565;27;20020;-77
2022/11/11 08:28:29;;;;;;;22.95;11.50;;;;;;;10.44;63.46;95192.47;5096947;28;20523;-77
2022/11/11 08:30:56;;;;;;;24.25;11.93;;;;;;;10.32;63.19;95147.59;5105224;27;20544;-76
2022/11/11 08:33:22;;;;;;;17.90;10.82;;;;;;;10.55;62.65;95173.50;5086703;28;20028;-76
2022/11/11 08:35:47;;;;;;;16.42;10.05;;;;;;;10.72;62.22;95189.03;5102333;27;20016;-75
2022/11/11 08:38:13;;;;;;;15.27;9.57;;;;;;;10.72;61.96;95173.88;5099396;27;20517;-77
2022/11/11 08:40:41;;;;;;;24.35;13.25;;;;;;;10.54;62.22;95161.28;5098780;27;20079;-75
2022/11/11 08:43:06;;;;;;;31.23;14.90;;;;;;;10.55;61.96;95172.72;5096080;27;20030;-77
2022/11/11 08:45:32;;;;;;;23.38;14.38;;;;;;;10.55;62.17;95162.06;5097566;27;20032;-74
2022/11/11 08:47:57;;;;;;;24.55;15.40;;;;;;;10.71;62.35;95193.56;5097643;27;20019;-76
2022/11/11 08:50:23;;;;;;;24.20;14.77;;;;;;;10.84;62.21;95200.13;5099840;27;20460;-76
2022/11/11 08:52:50;;;;;;;28.42;19.08;;;;;;;10.92;61.76;95194.19;5098368;27;20698;-76
2022/11/11 08:55:15;;;;;;;23.98;15.73;;;;;;;11.09;60.85;95191.88;5099846;28;20028;-76
2022/11/11 08:57:41;;;;;;;19.90;11.38;;;;;;;11.00;60.61;95180.25;5085268;27;20042;-77
2022/11/11 09:00:08;;;;;;;17.77;11.77;;;;;;;11.16;59.89;95189.66;5098516;27;20084;-76
2022/11/11 09:02:33;;;;;;;17.52;10.00;;;;;;;11.04;60.04;95181.28;5101265;27;20024;-77
2022/11/11 09:04:58;;;;;;;19.30;11.38;;;;;;;10.93;59.79;95147.06;5079096;28;20033;-74
2022/11/11 09:07:25;;;;;;;18.83;11.00;;;;;;;10.63;59.54;95133.00;5104663;27;20121;-77
2022/11/11 09:09:51;;;;;;;15.18;10.23;;;;;;;10.80;60.08;95172.50;5099842;27;20332;-76
2022/11/11 09:12:16;;;;;;;14.57;8.80;;;;;;;10.86;59.79;95152.72;5101151;27;20030;-76
2022/11/11 09:14:41;;;;;;;18.05;10.77;;;;;;;10.81;59.53;95139.44;5097524;27;20034;-78
2022/11/11 09:17:07;;;;;;;16.83;9.82;;;;;;;11.15;59.07;95182.75;5099149;27;20522;-77
2022/11/11 09:19:32;;;;;;;12.75;7.70;;;;;;;11.01;59.09;95173.06;5097133;27;20699;-76
2022/11/11 09:21:58;;;;;;;14.15;9.23;;;;;;;10.82;59.31;95150.91;5080802;27;20654;-75
2022/11/11 09:24:23;;;;;;;15.05;8.88;;;;;;;11.11;58.68;95168.41;5082686;27;20019;-78
2022/11/11 09:26:49;;;;;;;14.30;8.95;;;;;;;10.84;59.15;95170.84;5097658;27;20067;-78
2022/11/11 09:29:15;;;;;;;15.02;9.25;;;;;;;10.62;60.18;95183.81;5099854;27;20017;-78
2022/11/11 09:31:40;;;;;;;14.73;8.88;;;;;;;10.41;60.68;95158.47;5100519;27;20028;-75
2022/11/11 09:34:06;;;;;;;15.90;9.82;;;;;;;10.81;60.70;95173.28;5096601;27;20051;-77
2022/11/11 09:36:32;;;;;;;15.75;9.70;;;;;;;11.11;59.57;95187.06;5099739;27;20020;-76
2022/11/11 09:38:58;;;;;;;14.43;8.75;;;;;;;11.14;59.25;95164.41;5097415;27;20040;-75
2022/11/11 09:41:31;;;;;;;14.60;8.40;;;;;;;11.32;58.69;95170.84;5097876;27;20032;-76
2022/11/11 09:43:59;;;;;;;13.57;8.32;;;;;;;11.42;57.96;95170.75;5096038;27;20024;-75
2022/11/11 09:46:35;;;;;;;10.63;6.70;;;;;;;10.84;58.15;95109.63;5098801;27;20626;-76
2022/11/11 09:49:01;;;;;;;15.65;9.40;;;;;;;11.34;57.80;95169.50;5080639;28;20028;-76
2022/11/11 09:51:31;;;;;;;19.73;11.75;;;;;;;11.16;57.35;95141.72;5097240;27;20349;-76
2022/11/11 09:54:06;;;;;;;13.45;8.70;;;;;;;11.30;57.37;95170.34;5098315;27;20519;-76
2022/11/11 09:56:33;;;;;;;15.02;10.02;;;;;;;11.11;57.47;95133.81;5097871;27;20027;-76
2022/11/11 09:59:28;;;;;;;12.55;7.85;;;;;;;11.29;57.84;95160.78;5101822;27;20345;-76
2022/11/11 10:01:58;;;;;;;12.23;7.78;;;;;;;11.24;57.52;95158.19;5082122;28;20047;-77
2022/11/11 10:04:42;;;;;;;12.13;7.78;;;;;;;11.14;57.17;95162.53;5101554;27;20028;-77
2022/11/11 10:07:23;;;;;;;13.30;8.10;;;;;;;10.81;57.57;95138.69;5100574;27;20024;-77
2022/11/11 10:10:05;;;;;;;11.77;7.95;;;;;;;10.58;58.02;95129.56;5097546;28;20097;-76
2022/11/11 10:12:41;;;;;;;15.35;7.93;;;;;;;10.85;58.37;95164.47;5099009;27;20031;-77
2022/11/11 10:15:12;;;;;;;15.00;8.25;;;;;;;10.89;57.44;95157.50;5100653;27;20363;-77
2022/11/11 10:18:04;;;;;;;14.27;7.85;;;;;;;10.89;57.20;95151.38;5098999;27;20097;-76
2022/11/11 10:20:33;;;;;;;11.75;6.72;;;;;;;10.84;56.67;95132.78;5064744;28;20036;-77
2022/11/11 10:23:29;;;;;;;10.63;7.28;;;;;;;10.93;56.38;95161.16;5097283;27;20469;-76
2022/11/11 10:25:57;;;;;;;16.92;7.20;;;;;;;10.88;56.70;95155.09;5074506;28;20047;-76
2022/11/11 10:28:28;;;;;;;11.20;8.38;;;;;;;10.73;56.88;95146.19;5100627;27;20171;-76
2022/11/11 10:30:55;;;;;;;10.50;8.43;;;;;;;10.87;56.93;95154.31;5077529;28;20030;-77
2022/11/11 10:33:59;;;;;;;10.80;7.65;;;;;;;10.65;56.71;95130.84;5097802;28;20031;-76
2022/11/11 10:36:27;;;;;;;10.40;6.85;;;;;;;10.87;57.25;95146.31;5073798;28;20047;-76
2022/11/11 10:39:04;;;;;;;9.48;6.30;;;;;;;10.68;56.82;95118.84;5093292;27;20039;-77
2022/11/11 10:41:39;;;;;;;8.00;5.72;;;;;;;10.98;56.98;95150.47;5086262;28;20019;-76
2022/11/11 10:44:24;;;;;;;11.35;6.65;;;;;;;10.90;56.91;95147.63;5079470;28;20524;-76
2022/11/11 10:47:05;;;;;;;11.18;6.18;;;;;;;10.95;56.56;95145.72;5097789;27;20029;-76
2022/11/11 10:49:41;;;;;;;14.45;6.22;;;;;;;10.75;56.59;95124.63;5096650;27;20024;-76
2022/11/11 10:52:15;;;;;;;11.98;7.03;;;;;;;11.03;55.89;95142.44;5097347;28;20038;-76
2022/11/11 10:54:54;;;;;;;8.73;5.35;;;;;;;10.74;55.35;95115.84;5102244;28;20062;-76
2022/11/11 10:57:35;;;;;;;9.80;6.38;;;;;;;10.94;55.09;95144.13;5103226;27;20031;-77
2022/11/11 11:00:10;;;;;;;8.65;6.05;;;;;;;10.85;54.12;95116.56;5100794;28;20039;-76
2022/11/11 11:02:52;;;;;;;8.50;5.00;;;;;;;10.79;54.66;95138.16;5101925;28;20020;-77
2022/11/11 11:05:33;;;;;;;8.65;5.95;;;;;;;10.76;54.01;95122.78;5101373;28;20032;-76
2022/11/11 11:08:09;;;;;;;8.27;5.13;;;;;;;10.70;53.84;95096.22;5100210;28;20024;-76
2022/11/11 11:10:42;;;;;;;7.93;5.45;;;;;;;11.03;53.42;95129.13;5100516;28;20047;-76
2022/11/11 11:13:30;;;;;;;9.18;5.72;;;;;;;11.20;53.28;95135.84;5082036;28;20019;-76
2022/11/11 11:16:05;;;;;;;9.50;5.60;;;;;;;11.31;52.80;95116.00;5100361;28;20028;-77
2022/11/11 11:18:31;;;;;;;10.38;5.45;;;;;;;11.45;52.31;95117.66;5080891;28;20606;-77
2022/11/11 11:20:59;;;;;;;7.82;5.35;;;;;;;11.57;51.72;95119.97;5100398;28;20112;-76
2022/11/11 11:23:43;;;;;;;7.05;5.53;;;;;;;11.45;51.42;95079.56;5100610;28;20023;-76
2022/11/11 11:26:10;;;;;;;9.07;5.80;;;;;;;11.65;51.12;95115.84;5100061;28;21300;-76
2022/11/11 11:28:57;;;;;;;8.05;5.45;;;;;;;11.80;50.68;95112.97;5099454;28;20363;-76
2022/11/11 11:31:38;;;;;;;7.68;4.82;;;;;;;11.74;50.08;95076.78;5080687;28;20024;-77
2022/11/11 11:34:04;;;;;;;8.70;5.30;;;;;;;11.82;49.46;95090.28;5097643;28;20054;-76
2022/11/11 11:36:29;;;;;;;8.88;5.30;;;;;;;11.76;49.73;95086.09;5101308;28;20050;-77
2022/11/11 11:38:55;;;;;;;6.15;4.22;;;;;;;11.90;48.72;95102.16;5099552;28;20028;-76
2022/11/11 11:41:37;;;;;;;8.02;5.20;;;;;;;11.98;48.50;95099.63;5084045;28;20107;-76
2022/11/11 11:44:02;;;;;;;7.80;4.80;;;;;;;11.83;48.46;95085.75;5099853;28;20027;-76
2022/11/11 11:46:41;;;;;;;7.22;4.63;;;;;;;11.91;48.30;95071.75;5100823;28;20115;-76
2022/11/11 11:49:35;;;;;;;6.68;4.70;;;;;;;12.14;48.42;95094.84;5100540;28;20020;-76
2022/11/11 11:52:11;;;;;;;8.25;5.30;;;;;;;11.97;47.48;95068.72;5095302;28;20052;-76
2022/11/11 11:55:08;;;;;;;6.30;4.53;;;;;;;12.17;47.61;95098.81;5090073;27;20514;-76
2022/11/11 11:57:52;;;;;;;7.30;4.60;;;;;;;12.00;47.67;95038.00;5097939;27;20055;-77
2022/11/11 12:00:19;;;;;;;6.38;4.32;;;;;;;12.49;47.12;95088.13;5106324;27;20031;-76
2022/11/11 12:03:11;;;;;;;7.38;5.70;;;;;;;12.40;46.83;95073.88;5085874;28;20027;-75
2022/11/11 12:05:48;;;;;;;22.50;11.75;;;;;;;12.53;46.97;95085.66;5104552;27;20027;-76
2022/11/11 12:08:32;;;;;;;11.25;8.45;;;;;;;12.60;46.47;95081.56;5103961;27;20415;-77
2022/11/11 12:11:06;;;;;;;11.60;6.50;;;;;;;12.58;46.71;95065.03;5090336;28;20046;-76
2022/11/11 12:13:53;;;;;;;10.55;6.13;;;;;;;12.86;45.83;95081.84;5103757;27;20035;-76
2022/11/11 12:16:28;;;;;;;10.45;6.15;;;;;;;12.87;45.96;95070.88;5092310;27;20027;-76
2022/11/11 12:19:02;;;;;;;9.00;5.22;;;;;;;12.86;45.57;95076.50;5093845;27;20073;-76
2022/11/11 12:21:39;;;;;;;9.57;5.50;;;;;;;12.91;45.81;95065.72;5085924;28;20069;-76
2022/11/11 12:24:20;;;;;;;8.93;5.72;;;;;;;13.01;45.53;95062.84;5104483;27;20048;-76
2022/11/11 12:26:54;;;;;;;8.75;5.43;;;;;;;12.95;45.71;95047.25;5092759;27;20165;-76
2022/11/11 12:29:54;;;;;;;7.53;4.65;;;;;;;13.03;45.33;95041.22;5099136;27;20512;-76
2022/11/11 12:32:37;;;;;;;7.03;4.57;;;;;;;13.25;45.36;95057.31;5085451;27;20043;-77
2022/11/11 12:35:15;;;;;;;6.65;4.55;;;;;;;13.03;45.26;95055.34;5103613;27;20024;-76
2022/11/11 12:38:18;;;;;;;7.65;4.80;;;;;;;13.12;45.16;95047.44;5103602;27;20034;-76
2022/11/11 12:41:24;;;;;;;6.93;5.03;;;;;;;13.26;45.20;95058.88;5104261;27;20023;-77
2022/11/11 12:44:09;;;;;;;6.72;3.80;;;;;;;13.18;44.70;95059.59;5094575;27;20051;-77
2022/11/11 12:47:05;;;;;;;8.82;5.25;;;;;;;13.13;44.91;95059.69;5104194;27;20039;-77
2022/11/11 12:49:41;;;;;;;;;;;;;;;13.19;45.10;95051.28;5104496;27;20136;-76
2022/11/11 12:52:12;;;;;;;6.55;4.22;;;;;;;13.05;45.34;95053.19;5101027;27;20358;-76